Time;durP1;ratioP1;P1;durP2;ratioP2;P2;SDS_P1;SDS_P2;PMS_P1;PMS_P2;Temp;Humidity;BMP_temperature;BMP_pressure;BME280_temperature;BME280_humidity;BME280_pressure;Samples;Min_cycle;Max_cycle;Signal;HPM_P1;HPM_P2
2021/06/27 00:01:47;;;;;;;;;10.25;9.25;;;;;20.31;61.08;100626.81;4973313;28;65366;-61
2021/06/27 00:04:14;;;;;;;;;10.25;9.25;;;;;20.30;61.89;100636.66;4973425;28;64334;-60
2021/06/27 00:06:40;;;;;;;;;14.00;11.50;;;;;20.30;62.17;100644.66;4974031;28;45379;-60
2021/06/27 00:09:05;;;;;;;;;10.75;9.75;;;;;20.30;62.08;100650.00;4974061;28;45493;-61
2021/06/27 00:11:31;;;;;;;;;13.00;10.50;;;;;20.29;62.64;100661.69;4973578;28;52048;-60
2021/06/27 00:13:56;;;;;;;;;9.25;9.25;;;;;20.27;62.80;100665.59;4973530;28;45340;-61
2021/06/27 00:16:21;;;;;;;;;9.50;8.75;;;;;20.25;63.39;100684.44;4976086;28;45698;-60
2021/06/27 00:18:47;;;;;;;;;9.00;8.00;;;;;20.23;62.80;100678.47;4972787;28;63055;-61
2021/06/27 00:21:13;;;;;;;;;17.50;12.25;;;;;20.21;62.64;100685.03;4973639;28;45307;-60
2021/06/27 00:23:41;;;;;;;;;12.00;9.00;;;;;20.19;62.41;100674.56;4972665;28;45402;-60
2021/06/27 00:26:09;;;;;;;;;13.00;10.75;;;;;20.18;62.16;100672.91;4974008;28;45235;-60
2021/06/27 00:28:34;;;;;;;;;10.00;9.75;;;;;20.19;61.99;100687.09;4973786;28;45256;-60
2021/06/27 00:31:00;;;;;;;;;12.75;10.25;;;;;20.20;62.29;100686.88;4972830;28;67949;-60
2021/06/27 00:33:25;;;;;;;;;18.25;18.00;;;;;20.20;62.62;100692.22;4973564;28;45377;-60
2021/06/27 00:35:51;;;;;;;;;11.25;9.75;;;;;20.21;62.72;100685.84;4973655;28;45391;-61
2021/06/27 00:38:17;;;;;;;;;12.75;11.50;;;;;20.21;62.85;100688.53;4973718;28;45339;-60
2021/06/27 00:40:42;;;;;;;;;8.75;8.00;;;;;20.20;63.22;100692.22;4972359;28;73359;-60
2021/06/27 00:43:08;;;;;;;;;10.25;9.25;;;;;20.18;63.41;100688.91;4972613;28;66564;-61
2021/06/27 00:45:33;;;;;;;;;8.50;8.00;;;;;20.14;63.57;100691.16;4973768;28;45773;-60
2021/06/27 00:47:59;;;;;;;;;8.75;8.00;;;;;20.12;63.93;100690.53;4973560;28;45458;-60
2021/06/27 00:50:32;;;;;;;;;11.75;9.75;;;;;20.10;64.21;100681.09;4973288;28;45372;-60
2021/06/27 00:52:57;;;;;;;;;11.75;9.75;;;;;20.08;64.26;100688.47;4973384;28;45388;-60
2021/06/27 00:55:23;;;;;;;;;10.75;9.75;;;;;20.07;64.05;100694.81;4975526;27;45556;-60
2021/06/27 00:57:49;;;;;;;;;12.25;10.25;;;;;20.05;63.67;100691.53;4973461;28;45443;-60
2021/06/27 01:00:16;;;;;;;;;13.25;11.50;;;;;20.05;64.17;100691.53;4973153;28;45393;-61
2021/06/27 01:02:42;;;;;;;;;10.25;9.50;;;;;20.05;64.17;100694.19;4972099;28;45788;-60
2021/06/27 01:05:09;;;;;;;;;10.00;10.00;;;;;20.05;64.35;100702.19;4972719;28;55703;-59
2021/06/27 01:07:34;;;;;;;;;8.50;8.00;;;;;20.03;64.63;100697.03;4972080;28;45437;-60
2021/06/27 01:10:00;;;;;;;;;8.50;8.00;;;;;20.02;64.41;100700.72;4972243;28;69347;-60
2021/06/27 01:12:26;;;;;;;;;12.00;10.75;;;;;19.95;64.69;100706.03;4973095;28;45281;-60
2021/06/27 01:14:51;;;;;;;;;8.75;8.75;;;;;19.93;65.27;100696.53;4972448;28;64263;-61
2021/06/27 01:17:16;;;;;;;;;11.00;11.00;;;;;19.88;65.27;100694.44;4971124;28;62717;-60
2021/06/27 01:19:42;;;;;;;;;9.00;8.75;;;;;19.85;65.19;100705.50;4972429;28;45642;-60
2021/06/27 01:22:07;;;;;;;;;11.75;10.25;;;;;19.81;65.58;100689.06;4971952;28;64821;-59
2021/06/27 01:24:33;;;;;;;;;9.25;9.00;;;;;19.79;65.55;100685.78;4972134;28;63792;-60
2021/06/27 01:26:58;;;;;;;;;11.00;11.00;;;;;19.78;65.78;100673.47;4973339;28;63761;-61
2021/06/27 01:29:23;;;;;;;;;9.25;9.00;;;;;19.77;65.49;100646.97;4975568;28;54274;-60
2021/06/27 01:31:49;;;;;;;;;10.75;9.00;;;;;19.75;65.59;100631.19;4975820;28;45384;-60
2021/06/27 01:34:14;;;;;;;;;8.75;8.50;;;;;19.73;65.99;100634.03;4975965;28;45414;-60
2021/06/27 01:36:40;;;;;;;;;11.50;9.50;;;;;19.71;65.85;100632.59;4974485;28;48481;-60
2021/06/27 01:39:05;;;;;;;;;12.00;9.25;;;;;19.70;66.01;100636.28;4975523;28;46045;-59
2021/06/27 01:41:30;;;;;;;;;10.25;9.75;;;;;19.67;66.24;100634.81;4975167;28;62948;-59
2021/06/27 01:43:56;;;;;;;;;12.25;11.25;;;;;19.64;66.64;100624.53;4974144;28;52450;-60
2021/06/27 01:46:21;;;;;;;;;11.00;9.50;;;;;19.60;66.89;100617.97;4975740;28;45208;-60
2021/06/27 01:48:47;;;;;;;;;11.00;9.00;;;;;19.56;66.87;100616.72;4974638;28;74826;-60
2021/06/27 01:51:12;;;;;;;;;11.00;10.25;;;;;19.49;67.34;100605.97;4975628;28;45356;-60
2021/06/27 01:53:38;;;;;;;;;8.50;8.50;;;;;19.45;67.18;100599.38;4975777;28;45255;-59
2021/06/27 01:56:05;;;;;;;;;9.75;9.50;;;;;19.40;67.12;100596.47;4975369;28;45290;-59
2021/06/27 01:58:32;;;;;;;;;15.25;11.00;;;;;19.37;67.52;100597.69;4975322;28;45278;-60
2021/06/27 02:00:57;;;;;;;;;13.00;11.00;;;;;19.32;67.73;100594.78;4975346;28;45328;-60
2021/06/27 02:03:23;;;;;;;;;13.00;11.00;;;;;19.27;67.89;100587.38;4975598;28;45409;-60
2021/06/27 02:05:48;;;;;;;;;10.00;9.00;;;;;19.24;68.07;100597.59;4973917;28;53919;-60
2021/06/27 02:08:14;;;;;;;;;13.25;9.75;;;;;19.20;68.03;100596.31;4974314;28;70288;-60
2021/06/27 02:10:39;;;;;;;;;13.50;10.50;;;;;19.17;68.38;100604.69;4975127;28;45315;-59
2021/06/27 02:13:04;;;;;;;;;13.75;11.50;;;;;19.12;68.60;100597.28;4974429;28;63361;-60
2021/06/27 02:15:30;;;;;;;;;10.00;8.25;;;;;19.08;68.47;100599.47;4974253;28;70491;-60
2021/06/27 02:18:07;;;;;;;;;12.75;10.50;;;;;19.04;68.69;100592.09;4974953;28;45523;-61
2021/06/27 02:20:32;;;;;;;;;11.75;10.00;;;;;19.03;68.57;100601.94;4974900;28;45727;-60
2021/06/27 02:22:58;;;;;;;;;10.25;8.00;;;;;19.03;68.85;100603.75;4974466;28;50623;-60
2021/06/27 02:25:23;;;;;;;;;11.00;11.00;;;;;19.02;68.72;100594.94;4974456;28;62241;-61
2021/06/27 02:27:49;;;;;;;;;9.00;9.00;;;;;19.03;68.44;100579.78;4974023;28;73668;-60
2021/06/27 02:30:15;;;;;;;;;11.75;10.00;;;;;19.04;68.42;100576.09;4975002;28;45300;-60
2021/06/27 02:32:40;;;;;;;;;11.50;11.25;;;;;19.04;68.33;100570.78;4974070;28;45253;-60
2021/06/27 02:35:07;;;;;;;;;13.50;11.75;;;;;19.04;68.32;100560.97;4977111;27;45224;-60
2021/06/27 02:37:33;;;;;;;;;11.00;9.25;;;;;19.03;68.26;100548.66;4974771;28;46513;-61
2021/06/27 02:40:00;;;;;;;;;11.25;11.00;;;;;19.04;68.09;100537.00;4974900;28;45347;-60
2021/06/27 02:42:25;;;;;;;;;13.25;13.25;;;;;19.04;68.01;100534.34;4975208;28;45261;-60
2021/06/27 02:44:50;;;;;;;;;15.00;13.25;;;;;19.04;68.31;100528.19;4975189;28;45569;-60
2021/06/27 02:47:16;;;;;;;;;11.50;8.75;;;;;19.02;68.39;100525.72;4974516;28;58314;-60
2021/06/27 02:49:43;;;;;;;;;10.00;9.00;;;;;19.01;68.10;100517.91;4975014;28;45367;-60
2021/06/27 02:52:08;;;;;;;;;10.00;9.25;;;;;18.96;68.36;100511.31;4975122;28;45209;-60
2021/06/27 02:54:34;;;;;;;;;10.75;9.00;;;;;18.94;68.62;100508.00;4974207;28;56432;-60
2021/06/27 02:56:59;;;;;;;;;9.50;8.75;;;;;18.91;68.68;100507.56;4974319;28;61991;-60
2021/06/27 02:59:24;;;;;;;;;14.25;12.25;;;;;18.89;68.62;100506.94;4973804;28;68766;-60
2021/06/27 03:01:50;;;;;;;;;12.50;11.75;;;;;18.86;68.63;100500.13;4974145;28;60514;-59
2021/06/27 03:04:15;;;;;;;;;17.25;12.25;;;;;18.83;68.52;100504.03;4974284;28;59669;-60
2021/06/27 03:06:40;;;;;;;;;9.75;9.75;;;;;18.82;68.37;100505.03;4973799;28;72338;-60
2021/06/27 03:09:06;;;;;;;;;13.00;9.00;;;;;18.84;68.87;100510.16;4974627;28;45280;-59
2021/06/27 03:11:31;;;;;;;;;11.50;9.50;;;;;18.84;69.31;100516.31;4974868;28;45343;-61
2021/06/27 03:13:56;;;;;;;;;14.75;13.00;;;;;18.82;68.76;100521.00;4973642;28;70576;-59
2021/06/27 03:16:22;;;;;;;;;10.00;10.00;;;;;18.81;68.65;100524.69;4973699;28;67678;-60
2021/06/27 03:18:48;;;;;;;;;13.00;11.00;;;;;18.82;69.35;100525.50;4974395;28;45373;-59
2021/06/27 03:21:13;;;;;;;;;12.50;11.75;;;;;18.82;69.04;100525.50;4974593;28;45347;-61
2021/06/27 03:23:39;;;;;;;;;11.50;10.50;;;;;18.82;69.09;100523.66;4974269;28;45467;-60
2021/06/27 03:26:04;;;;;;;;;8.00;8.00;;;;;18.84;69.35;100512.81;4974194;28;46027;-60
2021/06/27 03:28:34;;;;;;;;;15.00;12.00;;;;;18.84;69.15;100512.81;4976437;28;45373;-59
2021/06/27 03:31:00;;;;;;;;;11.50;8.50;;;;;18.84;69.40;100511.00;4974559;28;45318;-59
2021/06/27 03:33:25;;;;;;;;;14.25;9.50;;;;;18.84;69.30;100508.31;4974534;28;45261;-60
2021/06/27 03:35:51;;;;;;;;;9.25;9.25;;;;;18.84;69.13;100511.00;4973500;28;66964;-60
2021/06/27 03:40:44;;;;;;;;;13.75;11.50;;;;;18.83;69.00;100504.03;4974414;28;45307;-60
2021/06/27 03:43:10;;;;;;;;;12.00;10.75;;;;;18.82;69.35;100506.84;4973799;28;63005;-60
2021/06/27 03:45:36;;;;;;;;;11.50;9.00;;;;;18.80;69.15;100509.72;4973647;28;64651;-60
2021/06/27 03:48:02;;;;;;;;;11.00;8.75;;;;;18.80;69.18;100514.25;4974529;28;45798;-60
2021/06/27 03:50:27;;;;;;;;;11.50;9.50;;;;;18.79;69.07;100510.72;4973687;28;45430;-61
2021/06/27 03:52:52;;;;;;;;;10.25;9.50;;;;;18.80;68.90;100500.94;4973447;28;65012;-60
2021/06/27 03:55:18;;;;;;;;;10.50;9.50;;;;;18.81;69.36;100502.56;4973479;28;61026;-61
2021/06/27 03:57:45;;;;;;;;;11.75;9.75;;;;;18.79;69.37;100500.09;4973669;28;45417;-60
2021/06/27 04:00:10;;;;;;;;;9.00;9.00;;;;;18.77;69.01;100499.47;4974047;28;45327;-61
2021/06/27 04:02:36;;;;;;;;;12.25;10.75;;;;;18.77;68.82;100504.78;4974370;28;45301;-61
2021/06/27 04:05:03;;;;;;;;;12.25;10.50;;;;;18.80;69.07;100512.38;4974123;28;45367;-60
2021/06/27 04:07:29;;;;;;;;;13.75;10.00;;;;;18.80;69.20;100512.38;4973897;28;45398;-61
2021/06/27 04:09:54;;;;;;;;;14.25;11.50;;;;;18.79;69.39;100515.25;4973143;28;63237;-60
2021/06/27 04:12:19;;;;;;;;;10.00;9.00;;;;;18.77;69.55;100528.75;4973253;28;61710;-60
2021/06/27 04:14:45;;;;;;;;;12.25;9.25;;;;;18.74;69.80;100529.13;4972862;28;68245;-60
2021/06/27 04:17:12;;;;;;;;;11.75;9.00;;;;;18.74;69.56;100520.31;4972313;28;46190;-60
2021/06/27 04:19:38;;;;;;;;;10.50;10.00;;;;;18.73;70.05;100527.47;4973813;28;45342;-60
2021/06/27 04:22:03;;;;;;;;;12.00;10.75;;;;;18.74;69.96;100523.78;4972872;28;66614;-61
2021/06/27 04:24:29;;;;;;;;;12.50;10.50;;;;;18.75;70.17;100519.31;4973380;28;46029;-60
2021/06/27 04:26:54;;;;;;;;;8.75;7.25;;;;;18.75;69.76;100528.09;4976100;27;45186;-60
2021/06/27 04:29:19;;;;;;;;;8.75;8.00;;;;;18.77;70.14;100517.28;4972876;28;65921;-61
2021/06/27 04:31:45;;;;;;;;;10.75;10.00;;;;;18.75;70.15;100509.47;4972912;28;66339;-60
2021/06/27 04:34:11;;;;;;;;;14.75;10.25;;;;;18.76;70.10;100508.44;4973350;28;46043;-60
2021/06/27 04:36:36;;;;;;;;;10.50;9.00;;;;;18.79;70.17;100508.06;4973486;28;45429;-60
2021/06/27 04:39:02;;;;;;;;;11.00;11.00;;;;;18.80;70.26;100507.06;4973507;28;45459;-60
2021/06/27 04:41:28;;;;;;;;;10.00;10.00;;;;;18.82;70.39;100505.03;4975236;27;45543;-60
2021/06/27 04:43:53;;;;;;;;;10.50;8.75;;;;;18.83;69.99;100501.34;4972495;28;68503;-60
2021/06/27 04:46:19;;;;;;;;;9.50;7.00;;;;;18.83;70.46;100505.84;4973168;28;48411;-61
2021/06/27 04:48:44;;;;;;;;;9.00;9.00;;;;;18.85;70.33;100503.81;4971393;28;65284;-60
2021/06/27 04:51:09;;;;;;;;;10.75;8.75;;;;;18.84;70.09;100495.00;4973480;28;45252;-60
2021/06/27 04:53:35;;;;;;;;;8.00;7.75;;;;;18.84;70.05;100492.34;4973195;28;46261;-61
2021/06/27 04:56:00;;;;;;;;;10.00;10.00;;;;;18.86;70.19;100486.03;4973578;28;45340;-60
2021/06/27 04:58:26;;;;;;;;;14.25;11.25;;;;;18.87;70.20;100485.00;4973209;28;45397;-60
2021/06/27 05:00:51;;;;;;;;;9.75;8.75;;;;;18.86;69.95;100494.00;4973327;28;45563;-60
2021/06/27 05:03:17;;;;;;;;;15.50;11.25;;;;;18.82;69.92;100491.72;4976400;28;45336;-60
2021/06/27 05:05:42;;;;;;;;;11.75;9.50;;;;;18.80;70.36;100499.06;4976284;28;48716;-60
2021/06/27 05:08:08;;;;;;;;;12.75;10.75;;;;;18.76;70.28;100500.47;4975313;28;45273;-60
2021/06/27 05:10:33;;;;;;;;;12.00;11.75;;;;;18.74;70.27;100502.50;4976320;28;45435;-60
2021/06/27 05:12:59;;;;;;;;;8.50;7.75;;;;;18.72;70.35;100499.19;4975499;28;61433;-60
2021/06/27 05:15:24;;;;;;;;;12.00;10.00;;;;;18.69;70.64;100505.75;4976185;28;45219;-59
2021/06/27 05:17:49;;;;;;;;;8.75;8.00;;;;;18.67;70.49;100509.59;4975270;28;45617;-58
2021/06/27 05:20:15;;;;;;;;;12.75;9.25;;;;;18.66;70.71;100506.13;4975642;28;57401;-60
2021/06/27 05:22:40;;;;;;;;;9.00;8.50;;;;;18.65;70.79;100504.47;4975135;28;67804;-60
2021/06/27 05:25:06;;;;;;;;;11.25;11.25;;;;;18.65;70.89;100508.97;4976182;28;45356;-60
2021/06/27 05:27:32;;;;;;;;;10.50;8.50;;;;;18.64;70.97;100507.31;4976010;28;45319;-60
2021/06/27 05:29:57;;;;;;;;;12.50;8.50;;;;;18.65;70.93;100512.47;4977337;28;52187;-60
2021/06/27 05:32:22;;;;;;;;;10.75;10.25;;;;;18.66;70.97;100508.78;4975163;28;63681;-60
2021/06/27 05:34:48;;;;;;;;;13.75;9.75;;;;;18.67;71.39;100506.94;4975098;28;63554;-61
2021/06/27 05:37:13;;;;;;;;;9.00;9.00;;;;;18.68;71.21;100504.09;4976016;28;45433;-60
2021/06/27 05:39:39;;;;;;;;;10.50;10.50;;;;;18.68;71.07;100503.25;4975757;28;45655;-60
2021/06/27 05:42:05;;;;;;;;;13.00;12.00;;;;;18.70;70.90;100509.22;4975646;28;45439;-60
2021/06/27 05:44:31;;;;;;;;;12.00;10.50;;;;;18.69;70.98;100516.38;4975776;28;45876;-60
2021/06/27 05:46:56;;;;;;;;;11.75;8.75;;;;;18.70;71.13;100506.56;4975666;28;48888;-61
2021/06/27 05:49:21;;;;;;;;;13.00;11.25;;;;;18.70;70.92;100503.88;4975803;28;45387;-60
2021/06/27 05:51:47;;;;;;;;;11.00;10.75;;;;;18.70;71.13;100503.88;4974432;28;45970;-60
2021/06/27 05:54:12;;;;;;;;;12.25;10.75;;;;;18.69;71.09;100494.25;4974249;28;45381;-60
2021/06/27 05:56:38;;;;;;;;;13.00;11.50;;;;;18.68;71.39;100497.94;4975729;28;45337;-60
2021/06/27 05:59:04;;;;;;;;;10.75;10.25;;;;;18.70;71.28;100495.91;4975601;28;45162;-60
2021/06/27 06:01:29;;;;;;;;;8.25;8.00;;;;;18.71;71.54;100492.22;4976574;28;45308;-61
2021/06/27 06:03:55;;;;;;;;;15.75;12.25;;;;;18.73;71.24;100500.84;4975496;28;45351;-61
2021/06/27 06:06:20;;;;;;;;;9.75;9.75;;;;;18.76;71.57;100505.00;4975360;28;46773;-60
2021/06/27 06:08:46;;;;;;;;;12.50;10.25;;;;;18.76;71.49;100511.13;4975506;28;45435;-61
2021/06/27 06:11:13;;;;;;;;;10.50;10.00;;;;;18.78;71.51;100514.41;4975462;28;45363;-60
2021/06/27 06:13:38;;;;;;;;;15.75;11.50;;;;;18.80;71.66;100512.38;4973991;28;45750;-60
2021/06/27 06:16:04;;;;;;;;;13.00;13.00;;;;;18.83;71.64;100516.50;4977406;27;45414;-60
2021/06/27 06:18:30;;;;;;;;;16.50;14.75;;;;;18.87;71.47;100519.59;4975331;28;45620;-60
2021/06/27 06:20:55;;;;;;;;;15.00;13.25;;;;;18.89;71.71;100525.56;4975063;28;46189;-60
2021/06/27 06:23:20;;;;;;;;;20.75;16.75;;;;;18.90;71.49;100514.72;4976719;27;45311;-60
2021/06/27 06:25:46;;;;;;;;;22.50;17.00;;;;;18.91;71.47;100513.69;4974430;28;59232;-59
2021/06/27 06:28:11;;;;;;;;;14.00;13.00;;;;;18.93;71.87;100516.19;4974587;28;57006;-60
2021/06/27 06:30:37;;;;;;;;;16.50;13.00;;;;;18.94;71.78;100512.50;4974716;28;46194;-60
2021/06/27 06:33:02;;;;;;;;;19.00;15.50;;;;;18.95;71.89;100514.97;4975005;28;49314;-60
2021/06/27 06:35:28;;;;;;;;;14.75;13.75;;;;;18.98;71.80;100508.47;4975253;28;45455;-60
2021/06/27 06:37:53;;;;;;;;;14.25;14.00;;;;;19.00;71.97;100503.78;4975077;28;45390;-60
2021/06/27 06:40:18;;;;;;;;;16.75;15.50;;;;;19.03;71.68;100506.06;4974352;28;58394;-60
2021/06/27 06:42:44;;;;;;;;;14.50;13.75;;;;;19.05;71.94;100508.53;4974592;28;59085;-60
2021/06/27 06:45:09;;;;;;;;;15.25;13.50;;;;;19.07;71.66;100517.97;4975139;28;45334;-60
2021/06/27 06:47:35;;;;;;;;;17.50;15.00;;;;;19.09;71.78;100515.09;4975087;28;45419;-60
2021/06/27 06:50:00;;;;;;;;;14.25;12.75;;;;;19.11;71.99;100513.88;4974628;28;46006;-60
2021/06/27 06:52:25;;;;;;;;;15.75;12.75;;;;;19.13;71.61;100517.19;4974237;28;61075;-60
2021/06/27 06:54:51;;;;;;;;;17.25;14.75;;;;;19.14;71.61;100510.03;4974770;28;46459;-61
2021/06/27 06:57:16;;;;;;;;;21.75;16.00;;;;;19.17;71.47;100511.47;4973853;28;69998;-60
2021/06/27 06:59:42;;;;;;;;;14.50;14.25;;;;;19.20;71.45;100516.41;4972487;28;72651;-60
2021/06/27 07:02:07;;;;;;;;;15.25;12.75;;;;;19.22;71.26;100514.38;4974708;28;45335;-60
2021/06/27 07:04:33;;;;;;;;;14.50;11.50;;;;;19.25;71.52;100508.66;4974781;28;45422;-60
2021/06/27 07:06:58;;;;;;;;;14.00;13.50;;;;;19.26;71.42;100507.66;4974635;28;45504;-60
2021/06/27 07:09:24;;;;;;;;;15.00;12.50;;;;;19.30;71.26;100508.91;4973381;28;66931;-60
2021/06/27 07:11:49;;;;;;;;;12.00;11.00;;;;;19.33;70.78;100505.84;4974258;28;45408;-60
2021/06/27 07:14:14;;;;;;;;;10.50;10.50;;;;;19.37;70.19;100500.94;4974470;28;45308;-60
2021/06/27 07:16:40;;;;;;;;;14.50;11.75;;;;;19.41;70.38;100500.38;4973762;28;58021;-60
2021/06/27 07:19:05;;;;;;;;;13.25;10.25;;;;;19.46;70.27;100509.63;4973912;28;46094;-60
2021/06/27 07:21:30;;;;;;;;;12.75;11.50;;;;;19.50;69.94;100516.22;4975836;28;45318;-60
2021/06/27 07:23:56;;;;;;;;;13.00;11.50;;;;;19.52;70.26;100514.19;4972471;28;69302;-60
2021/06/27 07:26:22;;;;;;;;;16.00;13.25;;;;;19.55;70.53;100514.59;4973225;28;45498;-59
2021/06/27 07:28:47;;;;;;;;;12.25;10.25;;;;;19.58;70.69;100513.41;4974286;28;46032;-59
2021/06/27 07:31:13;;;;;;;;;15.50;10.25;;;;;19.59;70.91;100520.38;4973882;28;51374;-60
2021/06/27 07:33:38;;;;;;;;;12.50;11.25;;;;;19.61;70.56;100512.97;4973659;28;57682;-59
2021/06/27 07:36:04;;;;;;;;;9.75;8.50;;;;;19.62;70.65;100519.97;4973678;28;54091;-60
2021/06/27 07:38:30;;;;;;;;;10.75;10.75;;;;;19.64;69.69;100514.44;4973951;28;47061;-60
2021/06/27 07:40:55;;;;;;;;;14.75;13.00;;;;;19.64;68.76;100512.59;4973651;28;53530;-60
2021/06/27 07:43:21;;;;;;;;;15.75;15.50;;;;;19.66;68.82;100515.88;4974420;28;45307;-60
2021/06/27 07:45:46;;;;;;;;;17.75;16.25;;;;;19.68;68.72;100515.69;4972485;28;54127;-60
2021/06/27 07:48:12;;;;;;;;;19.00;15.75;;;;;19.70;68.54;100505.66;4973204;28;69808;-60
2021/06/27 07:50:37;;;;;;;;;16.00;13.75;;;;;19.70;68.99;100509.13;4974174;28;45356;-60
2021/06/27 07:53:03;;;;;;;;;15.00;15.00;;;;;19.75;69.00;100510.41;4974431;28;45782;-60
2021/06/27 07:55:28;;;;;;;;;15.00;14.75;;;;;19.76;68.31;100502.22;4974362;28;45995;-60
2021/06/27 07:57:53;;;;;;;;;11.00;11.00;;;;;19.81;68.34;100504.28;4972934;28;70300;-61
2021/06/27 08:00:19;;;;;;;;;13.25;11.00;;;;;19.83;68.18;100505.75;4988825;28;45353;-59
2021/06/27 08:02:45;;;;;;;;;14.75;12.00;;;;;19.86;68.64;100501.84;4973939;28;45404;-60
2021/06/27 08:05:10;;;;;;;;;13.50;12.00;;;;;19.91;68.74;100509.25;4973286;28;52579;-60
2021/06/27 08:07:36;;;;;;;;;14.25;11.75;;;;;19.93;68.71;100492.06;4973461;28;46305;-60
2021/06/27 08:10:02;;;;;;;;;13.50;12.50;;;;;19.93;68.62;100496.56;4973692;28;45313;-60
2021/06/27 08:12:27;;;;;;;;;12.50;12.50;;;;;19.97;69.04;100503.97;4973939;28;45227;-60
2021/06/27 08:14:52;;;;;;;;;11.50;11.00;;;;;19.99;68.71;100506.44;4973846;28;45245;-61
2021/06/27 08:17:18;;;;;;;;;14.75;11.00;;;;;19.99;68.33;100495.75;4972917;28;66933;-60
2021/06/27 08:19:46;;;;;;;;;12.25;11.00;;;;;20.01;68.42;100496.38;4987486;28;72897;-59
2021/06/27 08:22:11;;;;;;;;;11.00;11.00;;;;;20.04;67.44;100503.19;4973928;28;45394;-60
2021/06/27 08:24:37;;;;;;;;;14.50;11.75;;;;;20.06;67.83;100509.13;4972631;28;56306;-60
2021/06/27 08:27:02;;;;;;;;;10.50;10.25;;;;;20.09;68.12;100508.75;4972993;28;46984;-60
2021/06/27 08:29:28;;;;;;;;;12.75;12.75;;;;;20.12;67.54;100519.00;4973372;28;45390;-60
2021/06/27 08:31:53;;;;;;;;;15.00;12.50;;;;;20.13;67.73;100515.31;4973294;28;45433;-60
2021/06/27 08:34:19;;;;;;;;;15.25;13.25;;;;;20.15;67.23;100505.25;4972818;28;52473;-60
2021/06/27 08:36:44;;;;;;;;;11.75;10.75;;;;;20.16;67.54;100514.88;4974624;28;71924;-60
2021/06/27 08:39:10;;;;;;;;;12.50;11.50;;;;;20.18;67.34;100507.50;4976121;28;45366;-60
2021/06/27 08:41:35;;;;;;;;;12.00;11.75;;;;;20.23;67.82;100520.28;4976071;28;46977;-60
2021/06/27 08:44:01;;;;;;;;;15.75;13.25;;;;;20.25;67.49;100516.38;4975099;28;45315;-60
2021/06/27 08:46:26;;;;;;;;;13.25;12.75;;;;;20.27;66.97;100506.31;4975482;28;68316;-60
2021/06/27 08:48:52;;;;;;;;;13.25;9.50;;;;;20.30;66.59;100513.09;4958266;28;63954;-60
2021/06/27 08:51:17;;;;;;;;;16.00;13.50;;;;;20.32;66.66;100516.41;4974642;28;53647;-60
2021/06/27 08:53:43;;;;;;;;;14.50;12.50;;;;;20.31;66.41;100502.22;4976407;28;47090;-60
2021/06/27 08:56:09;;;;;;;;;15.25;12.50;;;;;20.33;66.33;100507.38;4976435;28;45296;-60
2021/06/27 08:58:44;;;;;;;;;12.25;12.00;;;;;20.35;66.44;100509.81;4976232;28;45239;-60
2021/06/27 09:01:15;;;;;;;;;15.00;11.25;;;;;20.37;67.04;100515.78;4976308;28;45359;-60
2021/06/27 09:03:40;;;;;;;;;14.00;12.50;;;;;20.40;66.83;100510.84;4975219;28;45625;-60
2021/06/27 09:06:06;;;;;;;;;12.25;11.00;;;;;20.43;66.46;100520.31;4958771;28;46235;-60
2021/06/27 09:08:32;;;;;;;;;10.50;9.75;;;;;20.43;66.46;100520.31;4976253;28;45946;-60
2021/06/27 09:11:10;;;;;;;;;13.25;13.00;;;;;;;;4975839;28;56073;-60
2021/06/27 09:13:41;;;;;;;;;12.75;11.50;;;;;20.44;66.70;100524.63;4975350;28;45455;-60
2021/06/27 09:16:16;;;;;;;;;14.75;14.25;;;;;20.44;67.04;100532.63;4976236;28;46118;-60
2021/06/27 09:18:42;;;;;;;;;15.00;12.00;;;;;20.47;66.60;100537.56;4976157;28;45881;-60
2021/06/27 09:21:07;;;;;;;;;11.75;11.25;;;;;20.47;66.50;100540.25;4975160;28;61238;-60
2021/06/27 09:23:51;;;;;;;;;15.25;12.75;;;;;20.45;66.80;100534.28;4974658;28;45520;-61
2021/06/27 09:26:27;;;;;;;;;12.00;10.75;;;;;20.46;66.54;100530.59;4975407;28;45426;-60
2021/06/27 09:28:52;;;;;;;;;11.50;9.75;;;;;20.46;66.32;100528.72;4974338;28;45447;-60
2021/06/27 09:31:35;;;;;;;;;10.75;10.75;;;;;20.49;66.77;100522.19;4975478;28;45770;-60
2021/06/27 09:34:19;;;;;;;;;11.00;9.75;;;;;20.52;67.65;100519.13;4975505;28;45425;-60
2021/06/27 09:36:45;;;;;;;;;13.75;13.75;;;;;20.55;66.99;100524.03;4974617;28;74487;-60
2021/06/27 09:39:13;;;;;;;;;12.50;12.50;;;;;20.60;67.39;100532.28;4975947;28;45310;-59
2021/06/27 09:41:47;;;;;;;;;19.75;15.25;;;;;20.65;67.50;100538.84;4976023;28;45316;-59
2021/06/27 09:44:13;;;;;;;;;18.75;16.50;;;;;20.70;67.17;100542.53;4975879;28;45406;-59
2021/06/27 09:46:39;;;;;;;;;20.25;14.50;;;;;20.76;66.92;100535.56;4974009;28;46444;-59
2021/06/27 09:49:12;;;;;;;;;14.00;12.75;;;;;20.81;67.32;100533.13;4976357;28;45924;-60
2021/06/27 09:51:41;;;;;;;;;21.75;17.00;;;;;20.86;67.86;100533.34;4976031;28;45245;-59
2021/06/27 09:54:16;;;;;;;;;22.75;19.50;;;;;20.93;67.37;100536.00;4975993;28;45442;-60
2021/06/27 09:56:42;;;;;;;;;19.50;18.25;;;;;20.99;66.87;100539.72;4975991;28;45908;-59
2021/06/27 09:59:11;;;;;;;;;17.75;16.00;;;;;21.03;67.00;100540.97;4975658;28;45291;-60
2021/06/27 10:01:37;;;;;;;;;33.25;27.75;;;;;21.09;67.07;100544.66;4975663;28;45266;-60
2021/06/27 10:04:04;;;;;;;;;22.50;20.75;;;;;21.12;67.15;100545.06;4975729;28;45154;-59
2021/06/27 10:06:46;;;;;;;;;21.75;18.25;;;;;21.16;66.71;100551.66;4974249;28;46303;-60
2021/06/27 10:09:17;;;;;;;;;20.00;15.25;;;;;21.18;66.33;100554.94;4974447;28;45767;-60
2021/06/27 10:12:04;;;;;;;;;16.75;13.00;;;;;21.18;65.16;100554.09;4975676;28;45472;-58
2021/06/27 10:14:41;;;;;;;;;15.75;15.75;;;;;21.17;65.91;100553.31;4975477;28;45363;-59
2021/06/27 10:17:07;;;;;;;;;20.50;18.25;;;;;21.16;65.46;100556.16;4975374;28;46346;-59
2021/06/27 10:19:32;;;;;;;;;19.00;14.00;;;;;21.16;66.40;100565.00;4973935;28;73184;-60
2021/06/27 10:21:59;;;;;;;;;18.50;14.00;;;;;21.15;66.54;100566.03;4974733;28;61072;-59
2021/06/27 10:24:25;;;;;;;;;13.00;11.00;;;;;21.16;66.66;100567.69;4974146;28;45575;-59
2021/06/27 10:26:50;;;;;;;;;12.00;12.00;;;;;21.16;67.16;100567.69;4974048;28;45347;-59
2021/06/27 10:29:20;;;;;;;;;12.75;12.25;;;;;21.15;67.20;100566.03;4975344;28;45206;-60
2021/06/27 10:31:46;;;;;;;;;12.75;11.25;;;;;21.14;66.70;100571.56;4975404;28;45346;-59
2021/06/27 10:34:12;;;;;;;;;13.00;12.50;;;;;21.14;67.43;100566.22;4975235;28;45384;-59
2021/06/27 10:36:38;;;;;;;;;13.75;12.25;;;;;21.14;67.28;100568.91;4973816;28;46029;-60
2021/06/27 10:39:10;;;;;;;;;11.75;11.75;;;;;21.04;67.51;100563.97;4975247;28;45780;-60
2021/06/27 10:42:02;;;;;;;;;14.50;14.50;;;;;21.12;66.78;100584.31;4975438;28;45363;-60
2021/06/27 10:44:32;;;;;;;;;13.75;13.00;;;;;21.12;67.18;100581.63;4974433;28;45465;-60
2021/06/27 10:46:58;;;;;;;;;15.00;12.50;;;;;21.12;67.68;100581.63;4974974;28;46967;-60
2021/06/27 10:49:30;;;;;;;;;14.00;11.25;;;;;21.13;67.36;100577.94;4975619;28;45272;-60
2021/06/27 10:52:21;;;;;;;;;16.00;12.75;;;;;21.14;67.42;100585.78;4975182;28;45437;-60
2021/06/27 10:55:13;;;;;;;;;21.50;18.25;;;;;21.14;67.17;100585.78;4975098;28;45341;-59
2021/06/27 10:57:54;;;;;;;;;31.50;28.50;;;;;21.16;67.11;100586.38;4975004;28;46003;-59
2021/06/27 11:00:20;;;;;;;;;39.25;29.25;;;;;21.18;67.35;100587.00;4973016;28;45793;-60
2021/06/27 11:02:45;;;;;;;;;26.50;22.75;;;;;21.19;67.31;100596.66;4975164;28;45421;-59
2021/06/27 11:05:29;;;;;;;;;18.50;17.00;;;;;21.18;66.83;100595.03;4974186;28;65881;-59
2021/06/27 11:07:58;;;;;;;;;20.00;17.50;;;;;21.19;66.93;100595.81;4976488;28;46180;-59
2021/06/27 11:10:24;;;;;;;;;21.75;20.75;;;;;21.21;66.85;100591.09;4974806;28;45314;-59
2021/06/27 11:12:58;;;;;;;;;22.00;20.33;;;;;21.19;66.75;100587.81;4974926;28;45268;-59
2021/06/27 11:15:24;;;;;;;;;24.00;21.75;;;;;21.19;66.52;100593.16;4974716;28;45226;-59